createdAt,value
2022-10-01T00:02:55.578Z,9.98
2022-10-01T00:05:22.320Z,9.30
2022-10-01T00:07:48.678Z,9.68
2022-10-01T00:10:15.434Z,11.18
2022-10-01T00:12:46.078Z,10.93
2022-10-01T00:15:13.740Z,10.88
2022-10-01T00:17:40.920Z,10.40
2022-10-01T00:20:14.036Z,11.80
2022-10-01T00:22:40.799Z,10.15
2022-10-01T00:25:07.348Z,9.95
2022-10-01T00:27:35.789Z,10.45
2022-10-01T00:30:05.998Z,10.77
2022-10-01T00:32:32.606Z,10.70
2022-10-01T00:35:00.176Z,10.88
2022-10-01T00:37:26.769Z,10.63
2022-10-01T00:39:53.131Z,10.43
2022-10-01T00:42:23.536Z,10.45
2022-10-01T00:44:50.395Z,10.50
2022-10-01T00:47:19.722Z,11.00
2022-10-01T00:49:47.287Z,10.93
2022-10-01T00:52:16.638Z,10.63
2022-10-01T00:54:42.959Z,10.48
2022-10-01T00:57:09.711Z,10.50
2022-10-01T00:59:36.541Z,10.27
2022-10-01T01:02:03.813Z,10.68
2022-10-01T01:04:30.347Z,10.73
2022-10-01T01:06:58.315Z,10.20
2022-10-01T01:09:28.286Z,10.05
2022-10-01T01:12:09.998Z,10.07
2022-10-01T01:14:46.564Z,9.60
2022-10-01T01:17:14.953Z,10.50
2022-10-01T01:19:48.181Z,10.38
2022-10-01T01:22:14.834Z,10.77
2022-10-01T01:24:47.013Z,10.10
2022-10-01T01:27:32.461Z,9.63
2022-10-01T01:30:05.348Z,9.75
2022-10-01T01:32:34.970Z,9.82
2022-10-01T01:35:04.138Z,9.75
2022-10-01T01:37:34.048Z,10.10
2022-10-01T01:40:02.098Z,10.15
2022-10-01T01:42:37.263Z,10.00
2022-10-01T01:45:09.838Z,10.15
2022-10-01T01:47:38.279Z,10.43
2022-10-01T01:50:06.062Z,10.15
2022-10-01T01:52:32.694Z,10.15
2022-10-01T01:54:59.251Z,10.95
2022-10-01T01:57:26.371Z,10.25
2022-10-01T01:59:54.084Z,9.73
2022-10-01T02:02:26.066Z,10.05
2022-10-01T02:04:57.679Z,9.90
2022-10-01T02:07:35.613Z,9.95
2022-10-01T02:10:08.047Z,9.35
2022-10-01T02:12:53.746Z,10.02
2022-10-01T02:15:29.555Z,9.55
2022-10-01T02:18:10.016Z,10.43
2022-10-01T02:20:39.375Z,9.65
2022-10-01T02:23:10.076Z,9.75
2022-10-01T02:25:39.763Z,11.98
2022-10-01T02:28:08.580Z,9.45
2022-10-01T02:30:36.172Z,9.60
2022-10-01T02:33:04.231Z,9.57
2022-10-01T02:35:31.924Z,9.57
2022-10-01T02:37:59.636Z,9.60
2022-10-01T02:40:27.361Z,9.98
2022-10-01T02:42:56.872Z,9.30
2022-10-01T02:47:53.574Z,9.27
2022-10-01T02:50:23.159Z,9.55
2022-10-01T02:53:10.436Z,9.35
2022-10-01T02:55:37.707Z,8.55
2022-10-01T02:58:04.493Z,8.80
2022-10-01T03:00:31.179Z,8.05
2022-10-01T03:02:57.591Z,7.95
2022-10-01T03:05:24.109Z,8.48
2022-10-01T03:07:50.490Z,8.38
2022-10-01T03:10:16.873Z,8.95
2022-10-01T03:12:46.372Z,8.65
2022-10-01T03:17:38.984Z,7.35
2022-10-01T03:20:05.879Z,7.70
2022-10-01T03:22:33.381Z,7.32
2022-10-01T03:24:59.754Z,7.22
2022-10-01T03:27:26.326Z,7.07
2022-10-01T03:29:52.830Z,7.10
2022-10-01T03:32:20.185Z,7.35
2022-10-01T03:34:46.516Z,6.97
2022-10-01T03:37:15.685Z,7.18
2022-10-01T03:39:42.244Z,7.30
2022-10-01T03:42:08.591Z,6.50
2022-10-01T03:44:34.959Z,6.03
2022-10-01T03:47:01.335Z,6.47
2022-10-01T03:49:28.187Z,7.30
2022-10-01T03:51:54.550Z,6.28
2022-10-01T03:54:21.038Z,6.85
2022-10-01T03:56:48.874Z,5.85
2022-10-01T03:59:15.596Z,6.10
2022-10-01T04:01:41.932Z,6.10
2022-10-01T04:04:09.336Z,6.20
2022-10-01T04:06:36.024Z,5.55
2022-10-01T04:09:02.421Z,6.05
2022-10-01T04:11:28.750Z,5.28
2022-10-01T04:13:55.276Z,6.10
2022-10-01T04:16:21.633Z,6.43
2022-10-01T04:18:48.043Z,5.65
2022-10-01T04:21:15.586Z,6.68
2022-10-01T04:23:42.246Z,5.60
2022-10-01T04:26:08.652Z,5.60
2022-10-01T04:28:35.241Z,6.05
2022-10-01T04:31:37.458Z,5.63
2022-10-01T04:34:04.282Z,5.68
2022-10-01T04:36:31.064Z,5.68
2022-10-01T04:39:01.804Z,6.13
2022-10-01T04:41:30.451Z,6.30
2022-10-01T04:43:59.106Z,5.22
2022-10-01T04:46:25.617Z,5.53
2022-10-01T04:48:51.959Z,5.22
2022-10-01T04:51:18.671Z,5.22
2022-10-01T04:53:44.978Z,5.28
2022-10-01T04:56:11.371Z,5.35
2022-10-01T04:58:38.463Z,5.18
2022-10-01T05:01:04.891Z,5.30
2022-10-01T05:03:31.621Z,4.95
2022-10-01T05:05:57.974Z,5.18
2022-10-01T05:08:24.276Z,5.07
2022-10-01T05:10:50.731Z,4.82
2022-10-01T05:13:17.959Z,4.57
2022-10-01T05:15:44.808Z,4.95
2022-10-01T05:18:11.220Z,4.95
2022-10-01T05:20:38.314Z,7.25
2022-10-01T05:23:04.918Z,6.60
2022-10-01T05:25:31.600Z,6.45
2022-10-01T05:28:05.172Z,6.03
2022-10-01T05:30:32.171Z,6.55
2022-10-01T05:32:59.979Z,6.80
2022-10-01T05:35:26.607Z,7.25
2022-10-01T05:37:54.009Z,6.93
2022-10-01T05:40:20.625Z,6.22
2022-10-01T05:42:47.192Z,6.50
2022-10-01T05:45:13.745Z,6.25
2022-10-01T05:47:42.347Z,6.80
2022-10-01T05:50:09.125Z,6.07
2022-10-01T05:52:35.572Z,6.43
2022-10-01T05:55:02.092Z,5.55
2022-10-01T05:57:28.497Z,4.93
2022-10-01T05:59:54.851Z,4.13
2022-10-01T06:02:21.248Z,4.25
2022-10-01T06:04:47.674Z,4.25
2022-10-01T06:07:14.256Z,4.00
2022-10-01T06:09:40.757Z,4.68
2022-10-01T06:12:09.777Z,3.78
2022-10-01T06:14:36.119Z,4.13
2022-10-01T06:17:02.445Z,4.32
2022-10-01T06:19:31.786Z,4.90
2022-10-01T06:21:58.251Z,5.13
2022-10-01T06:24:25.527Z,4.28
2022-10-01T06:26:51.834Z,4.32
2022-10-01T06:29:18.217Z,4.10
2022-10-01T06:31:44.590Z,4.18
2022-10-01T06:34:11.019Z,4.40
2022-10-01T06:36:37.959Z,3.60
2022-10-01T06:39:04.306Z,4.03
2022-10-01T06:41:30.628Z,3.33
2022-10-01T06:44:01.818Z,3.60
2022-10-01T06:46:31.590Z,3.47
2022-10-01T06:48:57.890Z,3.63
2022-10-01T06:51:49.258Z,3.50
2022-10-01T06:54:18.343Z,3.17
2022-10-01T06:56:44.729Z,3.63
2022-10-01T06:59:11.039Z,3.80
2022-10-01T07:01:37.951Z,2.70
2022-10-01T07:04:04.696Z,3.33
2022-10-01T07:06:32.283Z,2.92
2022-10-01T07:08:58.865Z,3.25
2022-10-01T07:11:27.112Z,3.05
2022-10-01T07:13:54.718Z,3.22
2022-10-01T07:16:24.334Z,3.38
2022-10-01T07:21:16.989Z,2.83
2022-10-01T07:23:43.312Z,2.95
2022-10-01T07:26:10.042Z,3.00
2022-10-01T07:28:36.828Z,2.85
2022-10-01T07:31:06.700Z,2.55
2022-10-01T07:33:33.280Z,2.90
2022-10-01T07:36:00.298Z,2.65
2022-10-01T07:38:26.702Z,3.05
2022-10-01T07:40:54.620Z,2.63
2022-10-01T07:43:21.132Z,2.67
2022-10-01T07:45:47.816Z,2.83
2022-10-01T07:48:16.347Z,2.67
2022-10-01T07:50:43.304Z,2.77
2022-10-01T07:53:21.899Z,2.78
2022-10-01T07:55:51.038Z,2.90
2022-10-01T07:58:18.858Z,2.72
2022-10-01T08:00:47.120Z,2.67
2022-10-01T08:03:13.599Z,2.80
2022-10-01T08:05:41.241Z,2.80
2022-10-01T08:08:08.782Z,2.47
2022-10-01T08:10:36.590Z,2.80
2022-10-01T08:13:08.081Z,2.30
2022-10-01T08:15:35.188Z,2.55
2022-10-01T08:18:02.680Z,2.72
2022-10-01T08:20:29.052Z,2.80
2022-10-01T08:23:01.052Z,3.08
2022-10-01T08:25:27.349Z,2.63
2022-10-01T08:27:53.866Z,2.75
2022-10-01T08:30:20.503Z,2.70
2022-10-01T08:32:46.858Z,3.08
2022-10-01T08:35:13.266Z,2.97
2022-10-01T08:37:39.593Z,2.70
2022-10-01T08:40:08.739Z,2.50
2022-10-01T08:42:35.388Z,2.47
2022-10-01T08:45:04.285Z,2.67
2022-10-01T08:47:42.151Z,3.05
2022-10-01T08:50:19.338Z,2.70
2022-10-01T08:52:54.967Z,2.90
2022-10-01T08:55:32.731Z,2.90
2022-10-01T08:58:00.264Z,2.88
2022-10-01T09:00:27.228Z,3.13
2022-10-01T09:02:53.921Z,2.75
2022-10-01T09:05:23.628Z,2.67
2022-10-01T09:07:59.156Z,3.40
2022-10-01T09:10:44.303Z,2.90
2022-10-01T09:13:12.663Z,2.60
2022-10-01T09:15:51.389Z,3.20
2022-10-01T09:18:26.961Z,2.78
2022-10-01T09:20:58.090Z,3.00
2022-10-01T09:23:24.406Z,2.90
2022-10-01T09:25:50.971Z,2.75
2022-10-01T09:28:21.940Z,3.13
2022-10-01T09:31:11.217Z,3.03
2022-10-01T09:33:39.817Z,2.90
2022-10-01T09:36:14.921Z,2.38
2022-10-01T09:38:46.035Z,2.50
2022-10-01T09:41:12.888Z,2.95
2022-10-01T09:43:42.276Z,2.60
2022-10-01T09:46:17.099Z,2.67
2022-10-01T09:48:49.626Z,2.92
2022-10-01T09:51:18.394Z,2.25
2022-10-01T09:54:03.475Z,2.40
2022-10-01T09:56:33.720Z,2.78
2022-10-01T09:59:02.475Z,2.63
2022-10-01T10:01:50.351Z,2.70
2022-10-01T10:04:21.003Z,2.47
2022-10-01T10:06:47.802Z,2.53
2022-10-01T10:09:18.927Z,2.63
2022-10-01T10:11:45.635Z,2.20
2022-10-01T10:14:17.226Z,2.30
2022-10-01T10:16:47.294Z,2.28
2022-10-01T10:19:28.533Z,2.78
2022-10-01T10:21:57.609Z,2.80
2022-10-01T10:24:43.184Z,2.50
2022-10-01T10:27:20.788Z,2.63
2022-10-01T10:29:47.105Z,2.72
2022-10-01T10:32:25.654Z,2.53
2022-10-01T10:34:53.115Z,2.67
2022-10-01T10:37:22.905Z,2.50
2022-10-01T10:39:51.220Z,2.53
2022-10-01T10:42:18.835Z,2.67
2022-10-01T10:44:47.102Z,2.78
2022-10-01T10:47:14.839Z,2.63
2022-10-01T10:49:44.960Z,2.40
2022-10-01T10:52:24.377Z,2.50
2022-10-01T10:54:54.331Z,2.80
2022-10-01T10:57:23.598Z,3.10
2022-10-01T11:02:19.413Z,2.85
2022-10-01T11:04:45.862Z,2.63
2022-10-01T11:07:13.416Z,2.53
2022-10-01T11:09:47.666Z,2.55
2022-10-01T11:12:22.279Z,2.63
2022-10-01T11:14:48.626Z,2.38
2022-10-01T11:17:21.381Z,2.88
2022-10-01T11:19:55.392Z,2.50
2022-10-01T11:22:34.129Z,2.30
2022-10-01T11:25:03.466Z,2.75
2022-10-01T11:27:38.891Z,2.20
2022-10-01T11:30:27.042Z,2.72
2022-10-01T11:33:15.142Z,2.50
2022-10-01T11:35:56.882Z,2.42
2022-10-01T11:38:29.677Z,2.33
2022-10-01T11:41:01.095Z,2.35
2022-10-01T11:43:30.790Z,2.17
2022-10-01T11:46:01.013Z,2.40
2022-10-01T11:48:30.412Z,2.10
2022-10-01T11:53:31.015Z,2.30
2022-10-01T11:56:21.646Z,1.95
2022-10-01T11:58:51.124Z,2.13
2022-10-01T12:01:27.913Z,2.20
2022-10-01T12:03:54.289Z,2.25
2022-10-01T12:06:26.219Z,2.30
2022-10-01T12:09:00.712Z,1.90
2022-10-01T12:11:34.951Z,2.70
2022-10-01T12:14:03.729Z,1.90
2022-10-01T12:16:33.656Z,2.08
2022-10-01T12:19:10.989Z,2.15
2022-10-01T12:21:57.642Z,2.40
2022-10-01T12:24:31.934Z,2.17
2022-10-01T12:27:14.324Z,2.53
2022-10-01T12:29:49.799Z,2.10
2022-10-01T12:32:19.047Z,2.75
2022-10-01T12:34:57.536Z,2.75
2022-10-01T12:37:30.396Z,2.97
2022-10-01T12:40:00.272Z,2.75
2022-10-01T12:42:31.274Z,2.95
2022-10-01T12:44:57.779Z,3.30
2022-10-01T12:47:24.289Z,2.83
2022-10-01T12:50:04.434Z,2.88
2022-10-01T12:52:37.179Z,2.63
2022-10-01T12:55:07.117Z,2.63
2022-10-01T12:57:36.795Z,2.65
2022-10-01T13:00:11.521Z,2.63
2022-10-01T13:02:42.110Z,2.70
2022-10-01T13:05:17.063Z,3.05
2022-10-01T13:07:46.967Z,2.70
2022-10-01T13:10:16.249Z,3.20
2022-10-01T13:13:01.680Z,2.78
2022-10-01T13:15:42.370Z,3.22
2022-10-01T13:18:17.867Z,3.22
2022-10-01T13:20:59.333Z,3.65
2022-10-01T13:23:39.501Z,3.55
2022-10-01T13:26:26.014Z,3.45
2022-10-01T13:28:55.896Z,3.35
2022-10-01T13:31:34.977Z,3.20
2022-10-01T13:34:02.751Z,3.40
2022-10-01T13:36:31.051Z,3.78
2022-10-01T13:38:57.524Z,3.13
2022-10-01T13:41:31.383Z,3.22
2022-10-01T13:44:02.755Z,4.43
2022-10-01T13:46:31.310Z,3.20
2022-10-01T13:49:03.272Z,3.60
2022-10-01T13:51:36.531Z,4.30
2022-10-01T13:54:04.234Z,3.85
2022-10-01T13:56:36.709Z,4.47
2022-10-01T13:59:04.036Z,4.00
2022-10-01T14:01:39.834Z,3.60
2022-10-01T14:04:06.267Z,4.00
2022-10-01T14:06:39.594Z,4.28
2022-10-01T14:09:15.198Z,4.22
2022-10-01T14:12:02.868Z,4.40
2022-10-01T14:14:50.893Z,4.00
2022-10-01T14:17:22.260Z,3.95
2022-10-01T14:19:52.850Z,3.65
2022-10-01T14:22:40.582Z,4.15
2022-10-01T14:25:06.988Z,3.60
2022-10-01T14:27:38.076Z,3.30
2022-10-01T14:30:09.907Z,4.10
2022-10-01T14:32:36.306Z,3.55
2022-10-01T14:35:21.474Z,6.15
2022-10-01T14:37:47.935Z,4.55
2022-10-01T14:40:19.238Z,8.45
2022-10-01T14:42:56.205Z,8.23
2022-10-01T14:45:22.706Z,17.77
2022-10-01T14:47:59.424Z,8.88
2022-10-01T14:50:25.960Z,4.85
2022-10-01T14:52:55.258Z,6.50
2022-10-01T14:55:24.872Z,11.18
2022-10-01T14:57:52.892Z,8.45
2022-10-01T15:00:23.966Z,5.72
2022-10-01T15:02:52.040Z,4.05
2022-10-01T15:05:21.059Z,3.72
2022-10-01T15:07:49.776Z,2.78
2022-10-01T15:10:17.426Z,2.78
2022-10-01T15:12:44.462Z,2.58
2022-10-01T15:15:49.546Z,2.80
2022-10-01T15:18:16.883Z,3.00
2022-10-01T15:20:50.562Z,2.90
2022-10-01T15:23:17.132Z,3.28
2022-10-01T15:25:44.278Z,2.10
2022-10-01T15:28:15.590Z,2.50
2022-10-01T15:30:44.156Z,2.40
2022-10-01T15:33:19.933Z,2.20
2022-10-01T15:35:47.484Z,2.47
2022-10-01T15:38:14.055Z,2.35
2022-10-01T15:40:43.661Z,2.38
2022-10-01T15:43:22.764Z,2.10
2022-10-01T15:46:16.775Z,2.95
2022-10-01T15:48:44.171Z,2.63
2022-10-01T15:51:20.879Z,2.85
2022-10-01T15:54:00.432Z,2.72
2022-10-01T15:56:34.475Z,8.30
2022-10-01T15:59:16.886Z,14.65
2022-10-01T16:01:53.710Z,12.80
2022-10-01T16:04:26.680Z,16.08
2022-10-01T16:06:58.093Z,9.10
2022-10-01T16:09:32.547Z,13.40
2022-10-01T16:12:07.928Z,8.65
2022-10-01T16:14:42.378Z,9.10
2022-10-01T16:17:20.377Z,11.10
2022-10-01T16:19:53.575Z,8.40
2022-10-01T16:22:24.791Z,6.55
2022-10-01T16:25:02.916Z,5.10
2022-10-01T16:27:52.288Z,3.83
2022-10-01T16:32:57.027Z,2.92
2022-10-01T16:35:40.548Z,2.65
2022-10-01T16:38:09.017Z,2.78
2022-10-01T16:40:48.493Z,2.97
2022-10-01T16:43:17.351Z,3.33
2022-10-01T16:45:44.038Z,6.07
2022-10-01T16:48:16.540Z,5.13
2022-10-01T16:50:43.963Z,4.93
2022-10-01T16:53:11.892Z,5.38
2022-10-01T16:55:38.701Z,4.10
2022-10-01T16:58:09.100Z,3.30
2022-10-01T17:00:49.165Z,3.38
2022-10-01T17:03:18.914Z,3.10
2022-10-01T17:05:48.173Z,2.85
2022-10-01T17:08:15.382Z,2.72
2022-10-01T17:10:44.366Z,2.72
2022-10-01T17:13:14.712Z,2.50
2022-10-01T17:15:41.450Z,2.40
2022-10-01T17:18:09.604Z,2.45
2022-10-01T17:20:38.410Z,2.50
2022-10-01T17:23:05.185Z,2.47
2022-10-01T17:25:34.340Z,2.72
2022-10-01T17:28:02.610Z,2.60
2022-10-01T17:30:30.030Z,2.10
2022-10-01T17:32:57.423Z,2.15
2022-10-01T17:35:24.005Z,2.10
2022-10-01T17:37:50.953Z,2.42
2022-10-01T17:40:17.635Z,2.40
2022-10-01T17:42:44.074Z,2.38
2022-10-01T17:45:11.523Z,2.80
2022-10-01T17:47:42.360Z,2.70
2022-10-01T17:50:08.780Z,2.50
2022-10-01T17:52:35.258Z,2.20
2022-10-01T17:55:01.849Z,3.05
2022-10-01T17:57:28.371Z,2.75
2022-10-01T17:59:54.870Z,3.33
2022-10-01T18:02:40.958Z,2.72
2022-10-01T18:05:12.576Z,3.58
2022-10-01T18:07:39.338Z,3.47
2022-10-01T18:10:06.596Z,3.95
2022-10-01T18:12:34.294Z,3.47
2022-10-01T18:15:01.119Z,3.22
2022-10-01T18:17:27.890Z,4.50
2022-10-01T18:19:54.570Z,4.60
2022-10-01T18:22:21.485Z,5.03
2022-10-01T18:24:47.820Z,4.28
2022-10-01T18:27:14.233Z,3.72
2022-10-01T18:29:40.778Z,3.08
2022-10-01T18:32:23.992Z,2.75
2022-10-01T18:34:58.871Z,2.28
2022-10-01T18:37:28.344Z,1.90
2022-10-01T18:42:23.515Z,2.25
2022-10-01T18:44:56.654Z,3.10
2022-10-01T18:47:43.752Z,3.03
2022-10-01T18:50:10.150Z,2.70
2022-10-01T18:52:59.905Z,2.28
2022-10-01T18:55:43.859Z,2.33
2022-10-01T18:58:19.815Z,2.60
2022-10-01T19:00:52.428Z,2.38
2022-10-01T19:03:29.835Z,2.75
2022-10-01T19:05:56.303Z,2.30
2022-10-01T19:08:24.430Z,2.67
2022-10-01T19:10:58.139Z,2.65
2022-10-01T19:13:42.661Z,2.45
2022-10-01T19:16:25.441Z,2.45
2022-10-01T19:18:52.493Z,2.40
2022-10-01T19:21:58.524Z,2.63
2022-10-01T19:24:24.815Z,2.63
2022-10-01T19:27:04.538Z,2.88
2022-10-01T19:29:55.125Z,2.88
2022-10-01T19:32:23.879Z,2.53
2022-10-01T19:34:56.608Z,2.83
2022-10-01T19:37:27.783Z,3.67
2022-10-01T19:39:57.301Z,2.75
2022-10-01T19:42:26.013Z,3.20
2022-10-01T19:44:55.716Z,3.13
2022-10-01T19:47:30.481Z,3.20
2022-10-01T19:49:58.547Z,2.95
2022-10-01T19:52:25.865Z,3.00
2022-10-01T19:54:54.220Z,3.08
2022-10-01T19:57:22.660Z,3.38
2022-10-01T19:59:49.647Z,2.50
2022-10-01T20:02:27.112Z,2.72
2022-10-01T20:05:29.394Z,2.63
2022-10-01T20:08:14.022Z,2.95
2022-10-01T20:10:59.674Z,2.88
2022-10-01T20:13:42.092Z,1.80
2022-10-01T20:16:14.204Z,1.77
2022-10-01T20:19:06.926Z,2.00
2022-10-01T20:21:52.193Z,1.95
2022-10-01T20:24:29.065Z,1.85
2022-10-01T20:27:03.750Z,1.40
2022-10-01T20:29:39.258Z,1.60
2022-10-01T20:32:20.682Z,1.50
2022-10-01T20:35:05.749Z,1.67
2022-10-01T20:37:45.438Z,1.30
2022-10-01T20:40:11.802Z,1.48
2022-10-01T20:42:39.987Z,2.15
2022-10-01T20:45:14.611Z,1.70
2022-10-01T20:47:46.702Z,1.60
2022-10-01T20:50:18.114Z,1.52
2022-10-01T20:52:47.731Z,1.55
2022-10-01T20:55:27.031Z,2.10
2022-10-01T20:57:56.073Z,1.50
2022-10-01T21:00:26.747Z,1.92
2022-10-01T21:03:17.982Z,1.63
2022-10-01T21:05:46.315Z,1.70
2022-10-01T21:08:21.747Z,1.90
2022-10-01T21:10:52.149Z,1.80
2022-10-01T21:13:24.348Z,1.83
2022-10-01T21:15:50.681Z,2.30
2022-10-01T21:18:20.125Z,1.70
2022-10-01T21:23:12.686Z,1.83
2022-10-01T21:25:48.187Z,2.00
2022-10-01T21:28:29.879Z,2.15
2022-10-01T21:31:02.467Z,2.30
2022-10-01T21:33:41.676Z,2.75
2022-10-01T21:36:15.911Z,2.50
2022-10-01T21:39:06.996Z,2.38
2022-10-01T21:41:38.512Z,2.42
2022-10-01T21:44:23.832Z,2.35
2022-10-01T21:46:54.659Z,2.45
2022-10-01T21:49:24.326Z,2.35
2022-10-01T21:52:00.004Z,2.20
2022-10-01T21:54:38.908Z,2.20
2022-10-01T21:57:22.057Z,2.33
2022-10-01T21:59:51.420Z,1.95
2022-10-01T22:04:51.345Z,2.10
2022-10-01T22:07:23.953Z,2.22
2022-10-01T22:10:03.070Z,1.70
2022-10-01T22:12:32.006Z,2.15
2022-10-01T22:14:58.920Z,1.67
2022-10-01T22:17:27.807Z,1.90
2022-10-01T22:19:56.853Z,2.15
2022-10-01T22:22:25.750Z,2.00
2022-10-01T22:24:53.237Z,2.42
2022-10-01T22:27:25.780Z,1.70
2022-10-01T22:29:55.485Z,2.17
2022-10-01T22:32:23.098Z,2.13
2022-10-01T22:34:55.746Z,1.52
2022-10-01T22:37:24.616Z,2.25
2022-10-01T22:39:54.478Z,1.95
2022-10-01T22:42:25.005Z,1.60
2022-10-01T22:44:51.356Z,2.00
2022-10-01T22:47:23.860Z,2.00
2022-10-01T22:50:02.439Z,2.63
2022-10-01T22:52:47.706Z,1.70
2022-10-01T22:55:25.088Z,1.83
2022-10-01T22:58:09.806Z,1.80
2022-10-01T23:00:44.785Z,2.08
2022-10-01T23:03:14.159Z,1.90
2022-10-01T23:08:22.853Z,1.98
2022-10-01T23:10:58.376Z,2.97
2022-10-01T23:13:28.715Z,1.80
2022-10-01T23:15:54.986Z,1.60
2022-10-01T23:18:36.159Z,1.83
2022-10-01T23:21:14.677Z,2.00
2022-10-01T23:23:41.760Z,1.80
2022-10-01T23:26:26.630Z,1.65
2022-10-01T23:29:05.250Z,3.85
2022-10-01T23:31:32.671Z,1.75
2022-10-01T23:34:04.882Z,3.17
2022-10-01T23:36:34.674Z,1.98
2022-10-01T23:39:04.273Z,2.10
2022-10-01T23:44:00.936Z,1.95
2022-10-01T23:46:29.863Z,2.45
2022-10-01T23:48:59.693Z,1.52
2022-10-01T23:51:49.083Z,1.85
2022-10-01T23:56:49.844Z,1.83
2022-10-01T23:59:31.560Z,2.13
